Time;durP1;ratioP1;P1;durP2;ratioP2;P2;SDS_P1;SDS_P2;PMS_P1;PMS_P2;Temp;Humidity;BMP_temperature;BMP_pressure;BME280_temperature;BME280_humidity;BME280_pressure;Samples;Min_cycle;Max_cycle;Signal;HPM_P1;HPM_P2
2021/03/10 00:00:30;;;;;;;23.23;15.50;;;3.80;99.90;;;;;;5062739;28;20246;-71
2021/03/10 00:02:58;;;;;;;22.70;14.55;;;3.70;99.90;;;;;;5063133;28;20216;-71
2021/03/10 00:05:25;;;;;;;20.08;13.85;;;3.70;99.90;;;;;;5062854;28;20220;-71
2021/03/10 00:07:51;;;;;;;20.35;14.00;;;3.70;99.90;;;;;;5062669;28;21077;-71
2021/03/10 00:10:18;;;;;;;16.35;13.35;;;3.70;99.90;;;;;;5062604;28;20313;-70
2021/03/10 00:12:45;;;;;;;19.77;15.75;;;3.70;99.90;;;;;;5062026;28;20208;-70
2021/03/10 00:15:13;;;;;;;18.38;15.02;;;3.70;99.90;;;;;;5061297;28;20200;-72
2021/03/10 00:17:41;;;;;;;19.38;15.13;;;3.70;99.90;;;;;;5061476;28;20212;-71
2021/03/10 00:20:09;;;;;;;20.15;15.02;;;3.70;99.90;;;;;;5061694;28;20204;-71
2021/03/10 00:22:35;;;;;;;20.63;14.90;;;3.80;99.90;;;;;;5061294;28;20220;-70
2021/03/10 00:25:02;;;;;;;20.80;15.27;;;3.80;99.90;;;;;;5064310;28;20705;-70
2021/03/10 00:27:29;;;;;;;20.20;14.80;;;3.80;99.90;;;;;;5066770;28;20559;-71
2021/03/10 00:29:58;;;;;;;24.55;14.90;;;3.80;99.90;;;;;;5062253;28;20236;-70
2021/03/10 00:32:26;;;;;;;19.63;16.00;;;3.80;99.90;;;;;;5062689;28;20205;-71
2021/03/10 00:34:54;;;;;;;20.17;15.52;;;3.80;99.90;;;;;;5062286;28;20200;-70
2021/03/10 00:37:21;;;;;;;21.58;14.85;;;3.80;99.90;;;;;;5061304;28;20208;-71
2021/03/10 00:39:49;;;;;;;23.80;15.93;;;3.70;99.90;;;;;;5061854;28;20270;-72
2021/03/10 00:42:16;;;;;;;23.50;16.20;;;3.60;99.90;;;;;;5063397;28;20224;-72
2021/03/10 00:44:43;;;;;;;22.33;15.73;;;3.60;99.90;;;;;;5065740;28;20231;-72
2021/03/10 00:47:10;;;;;;;23.98;16.30;;;3.50;99.90;;;;;;5067112;28;20205;-72
2021/03/10 00:49:38;;;;;;;23.65;16.70;;;3.50;99.90;;;;;;5066458;28;20205;-72
2021/03/10 00:52:05;;;;;;;22.52;16.42;;;3.60;99.90;;;;;;5066883;28;20224;-72
2021/03/10 00:54:31;;;;;;;21.48;15.75;;;3.60;99.90;;;;;;5066413;28;20875;-71
2021/03/10 00:56:57;;;;;;;22.80;16.40;;;3.60;99.90;;;;;;5066562;28;20231;-71
2021/03/10 00:59:23;;;;;;;22.25;15.75;;;3.70;99.90;;;;;;5066254;28;20619;-72
2021/03/10 01:01:50;;;;;;;20.65;15.90;;;3.60;99.90;;;;;;5066406;28;20224;-72
2021/03/10 01:04:17;;;;;;;24.88;16.77;;;3.60;99.90;;;;;;5066293;28;20224;-70
2021/03/10 01:06:43;;;;;;;24.67;16.70;;;3.60;99.90;;;;;;5066070;28;20204;-70
2021/03/10 01:09:10;;;;;;;24.42;16.42;;;3.60;99.90;;;;;;5066816;28;20204;-71
2021/03/10 01:11:42;;;;;;;23.95;16.23;;;3.50;99.90;;;;;;5071112;28;20232;-70
2021/03/10 01:14:08;;;;;;;24.08;17.42;;;3.50;99.90;;;;;;5070546;28;20274;-70
2021/03/10 01:16:35;;;;;;;22.00;15.35;;;3.40;99.90;;;;;;5070135;28;20208;-71
2021/03/10 01:19:02;;;;;;;25.63;17.48;;;3.40;99.90;;;;;;5070459;28;20204;-70
2021/03/10 01:21:29;;;;;;;29.10;19.10;;;3.40;99.90;;;;;;5070476;28;20227;-70
2021/03/10 01:23:55;;;;;;;25.00;17.15;;;3.30;99.90;;;;;;5070320;28;20196;-70
2021/03/10 01:26:21;;;;;;;25.27;16.48;;;3.30;99.90;;;;;;5070396;28;20208;-71
2021/03/10 01:28:48;;;;;;;24.90;16.95;;;3.40;99.90;;;;;;5070171;28;20204;-71
2021/03/10 01:31:14;;;;;;;23.85;16.95;;;3.30;99.90;;;;;;5070560;28;20644;-69
2021/03/10 01:33:41;;;;;;;22.60;16.95;;;3.30;99.90;;;;;;5070363;28;20578;-71
2021/03/10 01:36:07;;;;;;;29.63;19.27;;;3.30;99.90;;;;;;5070788;28;20200;-70
2021/03/10 01:38:34;;;;;;;25.83;17.83;;;3.20;99.90;;;;;;5069287;28;20286;-70
2021/03/10 01:41:01;;;;;;;30.42;18.80;;;3.30;99.90;;;;;;5070413;28;20247;-70
2021/03/10 01:43:27;;;;;;;25.55;18.35;;;3.30;99.90;;;;;;5069854;28;20200;-70
2021/03/10 01:45:53;;;;;;;22.42;16.17;;;3.20;99.90;;;;;;5070197;28;20224;-70
2021/03/10 01:48:21;;;;;;;22.58;16.67;;;3.10;99.90;;;;;;5070325;28;20200;-70
2021/03/10 01:50:48;;;;;;;25.00;16.98;;;3.00;99.90;;;;;;5069276;28;20286;-70
2021/03/10 01:53:15;;;;;;;31.40;17.88;;;2.90;99.90;;;;;;5070088;28;20208;-70
2021/03/10 01:55:42;;;;;;;25.95;17.50;;;2.80;99.90;;;;;;5069866;28;20667;-69
2021/03/10 01:58:08;;;;;;;22.40;16.50;;;2.70;99.90;;;;;;5070131;28;20207;-70
2021/03/10 02:00:35;;;;;;;25.02;17.80;;;2.60;99.90;;;;;;5069447;28;20223;-71
2021/03/10 02:03:01;;;;;;;24.73;18.77;;;2.50;99.90;;;;;;5069992;28;20207;-71
2021/03/10 02:05:28;;;;;;;24.20;16.40;;;2.40;99.90;;;;;;5069609;28;20420;-70
2021/03/10 02:08:08;;;;;;;23.23;16.40;;;2.40;99.90;;;;;;5070246;28;20200;-70
2021/03/10 02:10:47;;;;;;;27.27;17.42;;;2.30;99.90;;;;;;5065584;28;20228;-70
2021/03/10 02:13:17;;;;;;;21.85;15.38;;;2.20;99.90;;;;;;5070042;28;20207;-70
2021/03/10 02:15:51;;;;;;;23.55;17.10;;;2.20;99.90;;;;;;5069131;28;20287;-71
2021/03/10 02:18:23;;;;;;;23.50;16.13;;;2.20;99.90;;;;;;5069040;28;20228;-70
2021/03/10 02:20:53;;;;;;;26.48;17.55;;;2.30;99.90;;;;;;5069164;28;20220;-70
2021/03/10 02:23:47;;;;;;;28.08;19.95;;;2.20;99.90;;;;;;5069302;28;20254;-71
2021/03/10 02:26:44;;;;;;;26.20;17.63;;;2.30;99.90;;;;;;5069651;28;20216;-70
2021/03/10 02:29:14;;;;;;;24.30;17.63;;;2.30;99.90;;;;;;5068974;28;20208;-71
2021/03/10 02:31:46;;;;;;;27.48;19.42;;;2.20;99.90;;;;;;5069041;28;20231;-70
2021/03/10 02:34:15;;;;;;;26.15;19.15;;;2.20;99.90;;;;;;5069478;28;20211;-70
2021/03/10 02:36:42;;;;;;;26.52;17.42;;;2.10;99.90;;;;;;5068848;28;20572;-71
2021/03/10 02:39:09;;;;;;;27.95;19.10;;;2.10;99.90;;;;;;5068999;28;20634;-71
2021/03/10 02:41:36;;;;;;;26.63;17.45;;;2.10;99.90;;;;;;5068697;28;20228;-70
2021/03/10 02:44:03;;;;;;;26.08;17.90;;;2.10;99.90;;;;;;5068570;28;20204;-71
2021/03/10 02:46:31;;;;;;;28.85;18.23;;;2.20;99.90;;;;;;5071314;28;20204;-70
2021/03/10 02:48:58;;;;;;;26.25;18.55;;;2.30;99.90;;;;;;5068877;28;20682;-70
2021/03/10 02:51:25;;;;;;;31.73;19.33;;;2.30;99.90;;;;;;5069178;28;20856;-70
2021/03/10 02:53:52;;;;;;;28.80;18.95;;;2.30;99.90;;;;;;5069087;28;20568;-70
2021/03/10 02:56:18;;;;;;;31.30;16.80;;;2.30;99.90;;;;;;5068354;28;20200;-70
2021/03/10 02:58:45;;;;;;;27.55;18.13;;;2.40;99.90;;;;;;5068160;28;20204;-70
2021/03/10 03:01:12;;;;;;;26.80;18.50;;;2.30;99.90;;;;;;5068913;28;20266;-69
2021/03/10 03:03:39;;;;;;;24.27;17.27;;;2.30;99.90;;;;;;5068816;28;20212;-70
2021/03/10 03:06:06;;;;;;;23.45;16.88;;;2.30;99.90;;;;;;5068728;28;20228;-69
2021/03/10 03:08:33;;;;;;;27.65;19.13;;;2.30;99.90;;;;;;5068063;28;20577;-70
2021/03/10 03:10:59;;;;;;;25.17;16.90;;;2.40;99.90;;;;;;5068412;28;20220;-70
2021/03/10 03:13:27;;;;;;;26.35;18.35;;;2.40;99.90;;;;;;5068380;28;20204;-71
2021/03/10 03:15:55;;;;;;;24.80;17.95;;;2.50;99.90;;;;;;5068806;28;20944;-71
2021/03/10 03:18:22;;;;;;;26.08;17.25;;;2.50;99.90;;;;;;5068659;28;20205;-70
2021/03/10 03:20:50;;;;;;;27.38;18.67;;;2.50;99.90;;;;;;5067719;28;20243;-70
2021/03/10 03:23:18;;;;;;;30.85;20.33;;;2.60;99.90;;;;;;5068767;28;20672;-70
2021/03/10 03:25:45;;;;;;;33.53;19.70;;;2.60;99.90;;;;;;5068342;28;20224;-70
2021/03/10 03:28:14;;;;;;;28.02;19.65;;;2.70;99.90;;;;;;5068915;28;20200;-70
2021/03/10 03:30:41;;;;;;;31.25;18.58;;;2.80;99.90;;;;;;5068256;28;20256;-71
2021/03/10 03:33:10;;;;;;;29.48;19.58;;;2.80;99.90;;;;;;5068564;28;20200;-71
2021/03/10 03:35:37;;;;;;;31.75;19.92;;;2.80;99.90;;;;;;5068462;28;20246;-71
2021/03/10 03:38:06;;;;;;;32.65;19.65;;;2.80;99.90;;;;;;5068628;28;20208;-70
2021/03/10 03:40:33;;;;;;;31.10;20.10;;;2.80;99.90;;;;;;5068384;28;20239;-70
2021/03/10 03:43:00;;;;;;;29.45;20.02;;;2.90;99.90;;;;;;5069309;28;20200;-70
2021/03/10 03:45:26;;;;;;;28.80;18.58;;;2.90;99.90;;;;;;5068121;28;20718;-70
2021/03/10 03:47:53;;;;;;;32.13;20.30;;;2.90;99.90;;;;;;5069328;28;20254;-70
2021/03/10 03:50:20;;;;;;;33.80;21.27;;;2.90;99.90;;;;;;5067866;28;20231;-70
2021/03/10 03:52:47;;;;;;;36.13;19.92;;;2.90;99.90;;;;;;5068621;28;20261;-70
2021/03/10 03:55:14;;;;;;;30.77;19.70;;;2.90;99.90;;;;;;5068535;28;20245;-70
2021/03/10 03:57:41;;;;;;;29.15;19.77;;;2.90;99.90;;;;;;5067496;28;20208;-70
2021/03/10 04:00:09;;;;;;;30.33;19.52;;;2.90;99.90;;;;;;5067740;28;20578;-70
2021/03/10 04:02:35;;;;;;;31.15;20.90;;;2.90;99.90;;;;;;5067772;28;20208;-71
2021/03/10 04:05:03;;;;;;;30.55;19.50;;;2.90;99.90;;;;;;5068059;28;20232;-70
2021/03/10 04:07:29;;;;;;;31.88;19.13;;;2.90;99.90;;;;;;5068092;28;20219;-70
2021/03/10 04:09:55;;;;;;;34.72;20.02;;;2.90;99.90;;;;;;5066805;28;20211;-70
2021/03/10 04:12:22;;;;;;;33.30;21.92;;;2.80;99.90;;;;;;5067760;28;20235;-69
2021/03/10 04:14:48;;;;;;;36.67;22.77;;;2.80;99.90;;;;;;5068111;28;20200;-70
2021/03/10 04:17:15;;;;;;;33.05;20.48;;;2.90;99.90;;;;;;5068033;28;20203;-71
2021/03/10 04:19:42;;;;;;;34.78;20.67;;;2.90;99.90;;;;;;5070150;28;20204;-70
2021/03/10 04:22:08;;;;;;;30.58;20.05;;;2.80;99.90;;;;;;5071604;28;20262;-70
2021/03/10 04:24:34;;;;;;;28.70;19.73;;;2.80;99.90;;;;;;5071827;28;20216;-72
2021/03/10 04:27:00;;;;;;;33.38;21.88;;;2.80;99.90;;;;;;5072065;28;20201;-70
2021/03/10 04:29:28;;;;;;;31.75;19.92;;;2.80;99.90;;;;;;5070899;28;20295;-70
2021/03/10 04:31:54;;;;;;;33.53;19.98;;;2.80;99.90;;;;;;5072310;28;20228;-70
2021/03/10 04:34:20;;;;;;;29.85;19.73;;;2.70;99.90;;;;;;5071308;28;20200;-70
2021/03/10 04:36:47;;;;;;;32.55;21.23;;;2.70;99.90;;;;;;5071613;28;20205;-70
2021/03/10 04:39:13;;;;;;;34.15;20.45;;;2.70;99.90;;;;;;5070303;28;20212;-70
2021/03/10 04:41:39;;;;;;;33.92;21.25;;;2.70;99.90;;;;;;5070803;28;20216;-71
2021/03/10 04:44:06;;;;;;;34.60;22.15;;;2.70;99.90;;;;;;5071947;28;20200;-70
2021/03/10 04:46:33;;;;;;;35.08;20.23;;;2.70;99.90;;;;;;5071674;28;20224;-70
2021/03/10 04:48:59;;;;;;;28.08;19.50;;;2.70;99.90;;;;;;5071369;28;20208;-70
2021/03/10 04:51:26;;;;;;;29.40;19.50;;;2.60;99.90;;;;;;5071713;28;20278;-71
2021/03/10 04:53:52;;;;;;;30.52;19.27;;;2.50;99.90;;;;;;5071899;28;20200;-71
2021/03/10 04:56:18;;;;;;;31.90;19.73;;;2.40;99.90;;;;;;5071663;28;20197;-70
2021/03/10 04:58:44;;;;;;;25.73;17.85;;;2.30;99.90;;;;;;5070776;28;20204;-70
2021/03/10 05:01:10;;;;;;;33.38;20.20;;;2.30;99.90;;;;;;5069229;28;20227;-71
2021/03/10 05:03:37;;;;;;;32.83;20.30;;;2.40;99.90;;;;;;5065250;28;20208;-70
2021/03/10 05:06:04;;;;;;;28.35;19.02;;;2.30;99.90;;;;;;5070328;28;20221;-70
2021/03/10 05:08:30;;;;;;;31.42;19.58;;;2.10;99.90;;;;;;5070852;28;20204;-70
2021/03/10 05:10:56;;;;;;;33.50;20.30;;;2.10;99.90;;;;;;5069810;28;20216;-70
2021/03/10 05:13:23;;;;;;;30.45;20.20;;;2.10;99.90;;;;;;5068612;28;20209;-72
2021/03/10 05:15:49;;;;;;;34.20;20.90;;;2.00;99.90;;;;;;5070892;28;20200;-72
2021/03/10 05:18:15;;;;;;;33.28;19.70;;;2.10;99.90;;;;;;5070064;28;20211;-71
2021/03/10 05:20:42;;;;;;;33.92;21.90;;;2.10;99.90;;;;;;5068790;28;20221;-74
2021/03/10 05:23:08;;;;;;;37.72;22.23;;;2.20;99.90;;;;;;5069402;28;20246;-75
2021/03/10 05:25:34;;;;;;;37.23;25.80;;;2.20;99.90;;;;;;5066902;28;20462;-74
2021/03/10 05:28:01;;;;;;;34.97;21.77;;;2.20;99.90;;;;;;5070021;28;20962;-74
2021/03/10 05:30:27;;;;;;;31.27;20.10;;;2.30;99.90;;;;;;5068387;28;20579;-74
2021/03/10 05:32:53;;;;;;;38.17;21.50;;;2.30;99.90;;;;;;5070041;28;20208;-74
2021/03/10 05:35:20;;;;;;;28.80;19.80;;;2.40;99.90;;;;;;5067860;28;20197;-73
2021/03/10 05:37:47;;;;;;;31.10;21.40;;;2.30;99.90;;;;;;5069403;28;20577;-74
2021/03/10 05:40:15;;;;;;;30.25;19.58;;;2.40;99.90;;;;;;5069250;28;20209;-74
2021/03/10 05:42:42;;;;;;;33.17;19.90;;;2.50;99.90;;;;;;5069903;28;20298;-74
2021/03/10 05:45:09;;;;;;;32.03;19.98;;;2.60;99.90;;;;;;5069474;28;20227;-73
2021/03/10 05:47:35;;;;;;;37.17;22.70;;;2.60;99.90;;;;;;5069046;28;20262;-73
2021/03/10 05:50:02;;;;;;;34.78;21.52;;;2.70;99.90;;;;;;5069297;28;20201;-74
2021/03/10 05:52:29;;;;;;;36.33;21.67;;;2.70;99.90;;;;;;5069307;28;20200;-74
2021/03/10 05:54:59;;;;;;;39.55;22.33;;;2.80;99.90;;;;;;5069820;28;20200;-74
2021/03/10 05:57:26;;;;;;;28.98;21.30;;;2.80;99.90;;;;;;5069241;28;20204;-74
2021/03/10 05:59:52;;;;;;;34.95;20.95;;;2.90;99.90;;;;;;5068405;28;20204;-73
2021/03/10 06:02:19;;;;;;;31.13;20.75;;;2.90;99.90;;;;;;5069810;28;20274;-73
2021/03/10 06:04:45;;;;;;;41.58;22.65;;;2.90;99.90;;;;;;5069094;28;20698;-74
2021/03/10 06:07:22;;;;;;;33.40;21.00;;;3.00;99.90;;;;;;5069848;28;20663;-73
2021/03/10 06:09:57;;;;;;;33.47;21.63;;;2.90;99.90;;;;;;5068804;28;20211;-74
2021/03/10 06:12:23;;;;;;;31.10;19.70;;;2.90;99.90;;;;;;5068688;28;20374;-74
2021/03/10 06:14:59;;;;;;;32.35;21.88;;;2.90;99.90;;;;;;5069278;28;20613;-73
2021/03/10 06:17:25;;;;;;;37.45;20.20;;;3.00;99.90;;;;;;5068812;28;20208;-74
2021/03/10 06:19:52;;;;;;;37.58;21.77;;;3.00;99.90;;;;;;5068537;28;20208;-73
2021/03/10 06:22:19;;;;;;;33.15;20.95;;;3.10;99.90;;;;;;5069196;28;20256;-74
2021/03/10 06:24:49;;;;;;;31.00;19.52;;;3.00;99.90;;;;;;5068071;28;20212;-73
2021/03/10 06:27:22;;;;;;;29.48;21.30;;;3.10;99.90;;;;;;5069649;28;20208;-74
2021/03/10 06:29:55;;;;;;;33.80;22.13;;;3.10;99.90;;;;;;5067879;28;20211;-73
2021/03/10 06:32:21;;;;;;;27.08;18.00;;;3.20;99.90;;;;;;5068487;28;20644;-73
2021/03/10 06:34:50;;;;;;;26.60;19.30;;;3.20;99.90;;;;;;5068410;28;20189;-73
2021/03/10 06:37:26;;;;;;;33.53;20.58;;;3.20;99.90;;;;;;5065144;28;20655;-73
2021/03/10 06:39:52;;;;;;;38.33;22.77;;;3.20;99.90;;;;;;5067703;28;20200;-73
2021/03/10 06:42:21;;;;;;;34.70;21.60;;;3.30;99.90;;;;;;5067742;28;20228;-73
2021/03/10 06:44:49;;;;;;;35.25;22.10;;;3.40;99.90;;;;;;5068583;28;20683;-73
2021/03/10 06:47:16;;;;;;;28.23;20.52;;;3.40;99.90;;;;;;5068804;28;20204;-73
2021/03/10 06:49:49;;;;;;;32.30;20.83;;;3.30;99.90;;;;;;5067281;28;20200;-73
2021/03/10 06:52:15;;;;;;;35.03;22.35;;;3.40;99.90;;;;;;5068399;28;20229;-74
2021/03/10 06:54:53;;;;;;;30.17;18.90;;;3.50;99.90;;;;;;5068036;28;20203;-74
2021/03/10 06:57:20;;;;;;;29.30;20.48;;;3.50;99.90;;;;;;5068495;28;20274;-74
2021/03/10 06:59:47;;;;;;;30.10;19.63;;;3.60;99.90;;;;;;5067829;28;20208;-74
2021/03/10 07:02:15;;;;;;;32.60;21.17;;;3.70;99.90;;;;;;5067901;28;20224;-73
2021/03/10 07:04:42;;;;;;;29.83;18.95;;;3.70;99.90;;;;;;5068135;28;20230;-73
2021/03/10 07:07:09;;;;;;;28.85;19.42;;;3.70;99.90;;;;;;5068444;28;20212;-73
2021/03/10 07:09:36;;;;;;;33.45;20.65;;;3.80;99.90;;;;;;5067577;28;20675;-73
2021/03/10 07:12:03;;;;;;;30.00;20.20;;;3.80;99.90;;;;;;5068027;28;20250;-73
2021/03/10 07:14:30;;;;;;;33.05;19.48;;;3.80;99.90;;;;;;5067305;28;20624;-73
2021/03/10 07:16:57;;;;;;;32.28;21.77;;;3.80;99.90;;;;;;5068584;28;20265;-73
2021/03/10 07:19:23;;;;;;;31.88;20.92;;;3.70;99.90;;;;;;5067315;28;20196;-73
2021/03/10 07:21:55;;;;;;;34.53;19.27;;;3.70;99.90;;;;;;5068160;28;20590;-73
2021/03/10 07:24:33;;;;;;;33.95;21.30;;;3.70;99.90;;;;;;5068115;28;20687;-73
2021/03/10 07:27:00;;;;;;;33.17;21.42;;;3.80;99.90;;;;;;5068055;28;20745;-73
2021/03/10 07:29:34;;;;;;;30.23;19.05;;;3.80;99.90;;;;;;5067691;28;20574;-73
2021/03/10 07:32:01;;;;;;;35.30;21.75;;;3.90;99.90;;;;;;5068043;28;20254;-73
2021/03/10 07:34:29;;;;;;;28.33;19.95;;;4.00;99.90;;;;;;5067969;28;20208;-73
2021/03/10 07:36:55;;;;;;;34.72;21.67;;;4.10;99.90;;;;;;5068407;28;20200;-73
2021/03/10 07:39:24;;;;;;;29.80;19.00;;;4.20;99.90;;;;;;5067162;28;20212;-73
2021/03/10 07:41:51;;;;;;;32.95;21.70;;;4.30;99.90;;;;;;5068435;28;20231;-73
2021/03/10 07:44:22;;;;;;;30.50;19.63;;;4.40;99.90;;;;;;5067921;28;20204;-73
2021/03/10 07:46:50;;;;;;;29.30;19.10;;;4.40;99.90;;;;;;5066412;28;20220;-73
2021/03/10 07:49:20;;;;;;;28.27;18.55;;;4.50;99.90;;;;;;5066835;28;20196;-72
2021/03/10 07:51:47;;;;;;;31.10;19.05;;;4.60;99.90;;;;;;5066396;28;20216;-73
2021/03/10 07:54:25;;;;;;;32.20;19.60;;;4.60;99.90;;;;;;5071676;28;20250;-72
2021/03/10 07:57:03;;;;;;;31.10;20.33;;;4.60;99.90;;;;;;5071365;28;20548;-73
2021/03/10 07:59:30;;;;;;;33.38;20.48;;;4.80;99.90;;;;;;5069867;28;20204;-73
2021/03/10 08:02:00;;;;;;;31.90;21.17;;;4.80;99.90;;;;;;5051206;28;20229;-72
2021/03/10 08:04:28;;;;;;;30.48;20.42;;;4.80;99.90;;;;;;5050936;28;20213;-72
2021/03/10 08:06:54;;;;;;;31.02;20.05;;;4.90;99.90;;;;;;5051792;28;20216;-73
2021/03/10 08:09:22;;;;;;;28.08;19.58;;;4.90;99.90;;;;;;5051030;28;20580;-73
2021/03/10 08:12:02;;;;;;;33.08;22.27;;;4.90;99.90;;;;;;5051565;28;20225;-73
2021/03/10 08:14:38;;;;;;;31.70;21.17;;;5.00;99.90;;;;;;5050498;28;20209;-73
2021/03/10 08:17:05;;;;;;;34.85;21.30;;;5.10;99.90;;;;;;5066463;28;20867;-73
2021/03/10 08:19:33;;;;;;;31.33;21.42;;;5.20;99.90;;;;;;5069545;28;20200;-72
2021/03/10 08:21:59;;;;;;;32.15;21.48;;;5.30;99.90;;;;;;5070592;28;20248;-72
2021/03/10 08:24:27;;;;;;;29.48;19.00;;;5.30;99.90;;;;;;5070134;28;20699;-72
2021/03/10 08:26:54;;;;;;;33.58;21.33;;;5.40;99.90;;;;;;5071341;28;20274;-72
2021/03/10 08:29:21;;;;;;;34.13;20.23;;;5.50;99.90;;;;;;5069919;28;20341;-72
2021/03/10 08:31:50;;;;;;;27.58;20.05;;;5.60;99.90;;;;;;5070771;28;20770;-72
2021/03/10 08:34:28;;;;;;;32.95;21.65;;;5.80;99.90;;;;;;5070635;28;20254;-72
2021/03/10 08:36:55;;;;;;;30.73;20.52;;;5.90;99.90;;;;;;5071216;28;20192;-72
2021/03/10 08:39:22;;;;;;;30.08;20.13;;;6.10;99.90;;;;;;5070187;28;20954;-72
2021/03/10 08:41:50;;;;;;;30.40;20.40;;;6.10;99.90;;;;;;5070230;28;20224;-72
2021/03/10 08:44:19;;;;;;;34.88;20.05;;;6.30;99.90;;;;;;5070955;28;20246;-72
2021/03/10 08:46:47;;;;;;;32.70;20.38;;;6.30;99.90;;;;;;5070343;28;20227;-72
2021/03/10 08:49:24;;;;;;;34.95;20.35;;;6.50;99.90;;;;;;5069953;28;20260;-72
2021/03/10 08:52:03;;;;;;;29.83;19.38;;;6.60;99.90;;;;;;5070921;28;20258;-72
2021/03/10 08:54:29;;;;;;;26.67;18.65;;;6.80;99.90;;;;;;5069679;28;20577;-72
2021/03/10 08:56:55;;;;;;;27.10;19.27;;;7.10;99.90;;;;;;5070932;28;20192;-72
2021/03/10 08:59:21;;;;;;;28.20;19.02;;;7.80;99.90;;;;;;5069798;28;20200;-72
2021/03/10 09:01:49;;;;;;;32.50;20.60;;;8.70;99.90;;;;;;5070277;28;20951;-72
2021/03/10 09:04:25;;;;;;;29.52;18.63;;;9.20;99.90;;;;;;5069617;28;20211;-72
2021/03/10 09:06:52;;;;;;;27.45;18.42;;;9.30;99.90;;;;;;5070326;28;20215;-72
2021/03/10 09:09:20;;;;;;;30.13;19.77;;;9.00;99.90;;;;;;5070181;28;20203;-71
2021/03/10 09:11:47;;;;;;;31.17;20.30;;;8.70;99.90;;;;;;5070059;28;20321;-72
2021/03/10 09:14:14;;;;;;;26.83;18.95;;;8.60;99.90;;;;;;5070548;28;20656;-72
2021/03/10 09:16:53;;;;;;;30.63;19.60;;;8.40;99.90;;;;;;5070324;28;20204;-72
2021/03/10 09:19:30;;;;;;;29.95;19.27;;;8.20;99.90;;;;;;5069022;28;20204;-72
2021/03/10 09:22:17;;;;;;;26.55;19.13;;;8.10;99.90;;;;;;5069493;28;20224;-73
2021/03/10 09:24:52;;;;;;;31.42;21.45;;;8.10;99.90;;;;;;5069642;28;20204;-73
2021/03/10 09:27:21;;;;;;;28.38;18.50;;;8.00;99.90;;;;;;5070453;28;20621;-73
2021/03/10 09:29:47;;;;;;;30.40;20.10;;;7.80;99.90;;;;;;5069252;28;20200;-73
2021/03/10 09:32:14;;;;;;;24.48;17.80;;;7.90;99.90;;;;;;5070033;28;20231;-71
2021/03/10 09:34:40;;;;;;;30.65;20.05;;;7.90;99.90;;;;;;5069287;28;20831;-74
2021/03/10 09:37:08;;;;;;;31.58;21.15;;;8.10;99.90;;;;;;5070166;28;20687;-73
2021/03/10 09:39:39;;;;;;;34.78;20.67;;;8.20;99.90;;;;;;5069413;28;20288;-73
2021/03/10 09:42:07;;;;;;;25.00;18.48;;;8.40;99.90;;;;;;5069846;28;20228;-74
2021/03/10 09:44:44;;;;;;;27.65;20.33;;;8.50;99.90;;;;;;5069577;28;20204;-74
2021/03/10 09:47:17;;;;;;;25.55;18.05;;;8.70;99.90;;;;;;5069981;28;20724;-73
2021/03/10 09:49:49;;;;;;;25.83;16.00;;;9.00;99.90;;;;;;5069930;28;20223;-72
2021/03/10 09:52:15;;;;;;;22.20;16.50;;;9.60;99.90;;;;;;5070065;28;20220;-72
2021/03/10 09:54:53;;;;;;;21.77;14.73;;;10.60;98.40;;;;;;5068978;28;20208;-73
2021/03/10 09:57:21;;;;;;;21.17;15.95;;;11.60;96.30;;;;;;5069882;28;20207;-73
2021/03/10 09:59:48;;;;;;;20.48;14.85;;;11.60;94.70;;;;;;5069160;28;20204;-74
2021/03/10 10:02:15;;;;;;;25.00;16.60;;;11.30;94.80;;;;;;5069231;28;20234;-73
2021/03/10 10:04:42;;;;;;;24.23;14.93;;;10.90;95.00;;;;;;5069130;28;20208;-74
2021/03/10 10:07:12;;;;;;;21.15;14.40;;;10.30;95.20;;;;;;5068583;28;20224;-73
2021/03/10 10:09:39;;;;;;;18.33;12.65;;;9.80;96.30;;;;;;5068623;28;20205;-74
2021/03/10 10:12:07;;;;;;;15.23;11.40;;;9.80;95.80;;;;;;5069511;28;20250;-74
2021/03/10 10:14:34;;;;;;;16.92;10.77;;;9.70;95.50;;;;;;5068779;28;20291;-74
2021/03/10 10:17:00;;;;;;;14.60;11.00;;;10.00;94.80;;;;;;5069437;28;20691;-73
2021/03/10 10:19:26;;;;;;;12.68;9.65;;;10.10;94.00;;;;;;5067639;28;20295;-73
2021/03/10 10:21:53;;;;;;;13.80;11.30;;;9.80;93.80;;;;;;5069092;28;20364;-73
2021/03/10 10:24:19;;;;;;;14.23;9.10;;;9.70;94.40;;;;;;5068299;28;20205;-72
2021/03/10 10:26:47;;;;;;;14.75;8.05;;;9.60;93.10;;;;;;5068382;28;20232;-73
2021/03/10 10:29:13;;;;;;;12.07;8.52;;;9.50;92.10;;;;;;5068727;28;20503;-73
2021/03/10 10:31:41;;;;;;;10.80;8.07;;;9.40;92.30;;;;;;5068308;28;20224;-73
2021/03/10 10:34:07;;;;;;;10.50;8.05;;;9.30;92.50;;;;;;5068488;28;20200;-73
2021/03/10 10:36:33;;;;;;;13.57;9.23;;;9.10;93.10;;;;;;5068434;28;20197;-73
2021/03/10 10:38:59;;;;;;;13.50;9.38;;;8.90;93.40;;;;;;5068226;28;20216;-73
2021/03/10 10:41:25;;;;;;;16.73;11.60;;;8.70;93.60;;;;;;5068033;28;20327;-73
2021/03/10 10:43:52;;;;;;;17.38;12.07;;;8.50;94.60;;;;;;5067852;28;20321;-73
2021/03/10 10:46:18;;;;;;;14.30;11.15;;;8.40;95.50;;;;;;5067987;28;20726;-73
2021/03/10 10:48:45;;;;;;;17.30;12.05;;;8.30;96.10;;;;;;5067799;28;20200;-73
2021/03/10 10:51:11;;;;;;;14.27;11.50;;;8.40;96.40;;;;;;5068411;28;20243;-73
2021/03/10 10:53:37;;;;;;;11.25;8.20;;;8.50;96.20;;;;;;5068056;28;20265;-73
2021/03/10 10:56:04;;;;;;;8.48;6.68;;;8.70;94.60;;;;;;5068009;28;20668;-73
2021/03/10 10:58:30;;;;;;;7.07;5.70;;;9.20;93.60;;;;;;5067659;28;20204;-73
2021/03/10 11:00:57;;;;;;;6.38;5.05;;;10.00;92.00;;;;;;5067876;28;20220;-73
2021/03/10 11:03:23;;;;;;;5.75;4.28;;;10.40;89.50;;;;;;5068350;28;20207;-73
2021/03/10 11:05:50;;;;;;;7.00;4.25;;;10.50;87.60;;;;;;5067962;28;20262;-73
2021/03/10 11:08:16;;;;;;;5.55;4.63;;;10.40;85.10;;;;;;5068276;28;20200;-73
2021/03/10 11:10:43;;;;;;;7.65;4.70;;;10.30;85.70;;;;;;5066542;28;20286;-73
2021/03/10 11:13:09;;;;;;;5.60;4.22;;;10.40;86.20;;;;;;5068231;28;20235;-73
2021/03/10 11:15:35;;;;;;;5.97;4.72;;;10.30;85.40;;;;;;5067813;28;20208;-73
2021/03/10 11:18:01;;;;;;;5.70;4.40;;;10.70;86.60;;;;;;5068105;28;20690;-73
2021/03/10 11:20:28;;;;;;;6.28;4.13;;;11.40;84.60;;;;;;5067183;28;20231;-73
2021/03/10 11:22:55;;;;;;;6.10;4.55;;;11.70;82.80;;;;;;5067829;28;20196;-73
2021/03/10 11:25:21;;;;;;;8.65;5.10;;;11.70;81.20;;;;;;5067630;28;20216;-73
2021/03/10 11:27:47;;;;;;;5.78;4.55;;;11.80;81.60;;;;;;5067719;28;20208;-73
2021/03/10 11:30:15;;;;;;;6.45;4.70;;;11.80;80.60;;;;;;5061299;28;20265;-73
2021/03/10 11:32:41;;;;;;;5.20;4.65;;;11.60;79.90;;;;;;5047703;28;20309;-74
2021/03/10 11:35:09;;;;;;;6.03;3.90;;;11.40;80.20;;;;;;5047078;28;20209;-73
2021/03/10 11:37:36;;;;;;;5.38;4.57;;;11.20;80.30;;;;;;5047633;28;20217;-74
2021/03/10 11:40:05;;;;;;;5.45;4.05;;;11.00;81.20;;;;;;5047423;28;20209;-73
2021/03/10 11:42:31;;;;;;;4.55;4.10;;;10.90;82.80;;;;;;5047887;28;20204;-73
2021/03/10 11:44:58;;;;;;;4.10;3.58;;;11.10;82.70;;;;;;5060662;28;20211;-73
2021/03/10 11:47:24;;;;;;;4.72;3.92;;;11.40;80.30;;;;;;5067520;28;20204;-73
2021/03/10 11:49:51;;;;;;;5.40;4.35;;;11.50;81.60;;;;;;5067313;28;20360;-73
2021/03/10 11:52:17;;;;;;;4.78;4.28;;;11.80;80.00;;;;;;5067912;28;20227;-73
2021/03/10 11:54:43;;;;;;;5.60;4.50;;;11.80;80.00;;;;;;5067623;28;20208;-73
2021/03/10 11:57:10;;;;;;;5.50;4.03;;;11.70;80.80;;;;;;5067879;28;20679;-73
2021/03/10 11:59:36;;;;;;;6.30;4.63;;;11.50;79.70;;;;;;5066069;28;20219;-73
2021/03/10 12:02:03;;;;;;;4.32;3.92;;;11.10;80.90;;;;;;5067488;28;20223;-73
2021/03/10 12:04:29;;;;;;;4.82;4.32;;;11.00;81.60;;;;;;5067416;28;20660;-73
2021/03/10 12:06:55;;;;;;;6.75;4.55;;;10.80;82.50;;;;;;5067156;28;20315;-73
2021/03/10 12:09:21;;;;;;;7.93;4.95;;;10.70;81.80;;;;;;5067071;28;20209;-73
2021/03/10 12:11:48;;;;;;;5.47;4.93;;;10.90;81.60;;;;;;5067677;28;20226;-72
2021/03/10 12:14:15;;;;;;;5.88;4.55;;;10.70;81.00;;;;;;5067613;28;20216;-72
2021/03/10 12:16:41;;;;;;;6.18;4.55;;;10.60;81.40;;;;;;5066894;28;21054;-72
2021/03/10 12:19:07;;;;;;;5.90;4.45;;;10.70;82.00;;;;;;5067753;28;20218;-73
2021/03/10 12:21:34;;;;;;;4.22;3.83;;;10.60;81.90;;;;;;5067264;28;20224;-72
2021/03/10 12:24:00;;;;;;;6.10;4.55;;;10.60;81.70;;;;;;5066776;28;20200;-72
2021/03/10 12:26:26;;;;;;;4.97;4.47;;;10.60;80.80;;;;;;5065462;28;20311;-73
2021/03/10 12:28:52;;;;;;;4.60;4.00;;;10.90;81.40;;;;;;5067388;28;20212;-73
2021/03/10 12:31:19;;;;;;;5.80;4.75;;;11.30;78.40;;;;;;5067109;28;20643;-72
2021/03/10 12:33:45;;;;;;;5.38;4.03;;;11.80;77.90;;;;;;5066830;28;20211;-72
2021/03/10 12:36:12;;;;;;;6.80;4.50;;;11.80;75.70;;;;;;5067131;28;20209;-73
2021/03/10 12:38:38;;;;;;;4.55;3.90;;;11.60;78.10;;;;;;5066577;28;20212;-72
2021/03/10 12:41:04;;;;;;;5.63;4.68;;;11.60;77.60;;;;;;5071072;28;20224;-72